sensor_id;sensor_type;location;lat;lon;timestamp;temperature;humidity
19862;DHT22;10093;48.148;8.542;2022-12-18T00:01:27;-10.90;99.90
19862;DHT22;10093;48.148;8.542;2022-12-18T00:03:55;-10.80;99.90
19862;DHT22;10093;48.148;8.542;2022-12-18T00:06:22;-10.80;99.90
19862;DHT22;10093;48.148;8.542;2022-12-18T00:08:48;-10.60;99.90
19862;DHT22;10093;48.148;8.542;2022-12-18T00:11:16;-10.70;99.90
19862;DHT22;10093;48.148;8.542;2022-12-18T00:13:43;-10.50;99.90
19862;DHT22;10093;48.148;8.542;2022-12-18T00:16:18;-10.60;99.90
19862;DHT22;10093;48.148;8.542;2022-12-18T00:18:46;-10.60;99.90
19862;DHT22;10093;48.148;8.542;2022-12-18T00:21:12;-10.40;99.90
19862;DHT22;10093;48.148;8.542;2022-12-18T00:23:39;-10.50;99.90
19862;DHT22;10093;48.148;8.542;2022-12-18T00:26:09;-10.40;99.90
19862;DHT22;10093;48.148;8.542;2022-12-18T00:28:35;-10.40;99.90
19862;DHT22;10093;48.148;8.542;2022-12-18T00:31:02;-10.30;99.90
19862;DHT22;10093;48.148;8.542;2022-12-18T00:33:29;-10.20;99.90
19862;DHT22;10093;48.148;8.542;2022-12-18T00:35:54;-10.10;99.90
19862;DHT22;10093;48.148;8.542;2022-12-18T00:38:20;-9.90;99.90
19862;DHT22;10093;48.148;8.542;2022-12-18T00:40:48;-9.60;99.90
19862;DHT22;10093;48.148;8.542;2022-12-18T00:43:14;-9.30;99.90
19862;DHT22;10093;48.148;8.542;2022-12-18T00:45:39;-9.20;99.90
19862;DHT22;10093;48.148;8.542;2022-12-18T00:48:06;-9.20;99.90
19862;DHT22;10093;48.148;8.542;2022-12-18T00:50:32;-9.10;99.90
19862;DHT22;10093;48.148;8.542;2022-12-18T00:52:57;-8.90;99.90
19862;DHT22;10093;48.148;8.542;2022-12-18T00:55:23;-8.80;99.90
19862;DHT22;10093;48.148;8.542;2022-12-18T00:57:51;-8.60;99.90
19862;DHT22;10093;48.148;8.542;2022-12-18T01:00:17;-8.50;99.90
19862;DHT22;10093;48.148;8.542;2022-12-18T01:02:43;-8.50;99.90
19862;DHT22;10093;48.148;8.542;2022-12-18T01:05:10;-8.40;99.90
19862;DHT22;10093;48.148;8.542;2022-12-18T01:07:36;-8.30;99.90
19862;DHT22;10093;48.148;8.542;2022-12-18T01:10:03;-8.30;99.90
19862;DHT22;10093;48.148;8.542;2022-12-18T01:12:29;-8.10;99.90
19862;DHT22;10093;48.148;8.542;2022-12-18T01:14:55;-7.90;99.90
19862;DHT22;10093;48.148;8.542;2022-12-18T01:17:21;-8.00;99.90
19862;DHT22;10093;48.148;8.542;2022-12-18T01:19:47;-8.00;99.90
19862;DHT22;10093;48.148;8.542;2022-12-18T01:22:12;-8.00;99.90
19862;DHT22;10093;48.148;8.542;2022-12-18T01:24:38;-7.90;99.90
19862;DHT22;10093;48.148;8.542;2022-12-18T01:27:04;-7.70;99.90
19862;DHT22;10093;48.148;8.542;2022-12-18T01:29:29;-7.80;99.90
19862;DHT22;10093;48.148;8.542;2022-12-18T01:31:55;-7.70;99.90
19862;DHT22;10093;48.148;8.542;2022-12-18T01:34:22;-7.60;99.90
19862;DHT22;10093;48.148;8.542;2022-12-18T01:36:47;-7.50;99.90
19862;DHT22;10093;48.148;8.542;2022-12-18T01:39:14;-7.40;99.90
19862;DHT22;10093;48.148;8.542;2022-12-18T01:41:40;-7.30;99.90
19862;DHT22;10093;48.148;8.542;2022-12-18T01:47:39;-7.00;99.90
19862;DHT22;10093;48.148;8.542;2022-12-18T01:50:10;-7.10;99.90
19862;DHT22;10093;48.148;8.542;2022-12-18T01:52:37;-6.80;99.90
19862;DHT22;10093;48.148;8.542;2022-12-18T01:55:05;-6.40;99.90
19862;DHT22;10093;48.148;8.542;2022-12-18T01:57:32;-6.30;99.90
19862;DHT22;10093;48.148;8.542;2022-12-18T02:00:02;-6.40;99.90
19862;DHT22;10093;48.148;8.542;2022-12-18T02:02:29;-6.40;99.90
19862;DHT22;10093;48.148;8.542;2022-12-18T02:04:55;-6.40;99.90
19862;DHT22;10093;48.148;8.542;2022-12-18T02:10:22;-6.00;99.90
19862;DHT22;10093;48.148;8.542;2022-12-18T02:13:03;-5.80;99.90
19862;DHT22;10093;48.148;8.542;2022-12-18T02:15:45;-5.80;99.90
19862;DHT22;10093;48.148;8.542;2022-12-18T02:18:22;-5.60;99.90
19862;DHT22;10093;48.148;8.542;2022-12-18T02:21:25;-5.50;99.90
19862;DHT22;10093;48.148;8.542;2022-12-18T02:29:08;-5.50;99.90
19862;DHT22;10093;48.148;8.542;2022-12-18T02:31:40;-5.50;99.90
19862;DHT22;10093;48.148;8.542;2022-12-18T02:34:09;-5.40;99.90
19862;DHT22;10093;48.148;8.542;2022-12-18T02:36:38;-5.40;99.90
19862;DHT22;10093;48.148;8.542;2022-12-18T02:39:05;-5.40;99.90
19862;DHT22;10093;48.148;8.542;2022-12-18T02:41:33;-5.40;99.90
19862;DHT22;10093;48.148;8.542;2022-12-18T02:44:00;-5.40;99.90
19862;DHT22;10093;48.148;8.542;2022-12-18T02:46:31;-5.40;99.90
19862;DHT22;10093;48.148;8.542;2022-12-18T02:52:01;-5.30;99.90
19862;DHT22;10093;48.148;8.542;2022-12-18T03:02:57;-5.40;99.90
19862;DHT22;10093;48.148;8.542;2022-12-18T03:06:00;-5.50;99.90
19862;DHT22;10093;48.148;8.542;2022-12-18T03:08:33;-5.40;99.90
19862;DHT22;10093;48.148;8.542;2022-12-18T03:11:12;-5.40;99.90
19862;DHT22;10093;48.148;8.542;2022-12-18T03:13:45;-5.30;99.90
19862;DHT22;10093;48.148;8.542;2022-12-18T03:16:15;-5.30;99.90
19862;DHT22;10093;48.148;8.542;2022-12-18T03:18:47;-5.20;99.90
19862;DHT22;10093;48.148;8.542;2022-12-18T03:21:18;-5.20;99.90
19862;DHT22;10093;48.148;8.542;2022-12-18T03:23:48;-5.20;99.90
19862;DHT22;10093;48.148;8.542;2022-12-18T03:26:17;-5.30;99.90
19862;DHT22;10093;48.148;8.542;2022-12-18T03:28:55;-5.40;99.90
19862;DHT22;10093;48.148;8.542;2022-12-18T03:31:23;-5.30;99.90
19862;DHT22;10093;48.148;8.542;2022-12-18T03:33:54;-5.20;99.90
19862;DHT22;10093;48.148;8.542;2022-12-18T03:36:20;-5.20;99.90
19862;DHT22;10093;48.148;8.542;2022-12-18T03:38:46;-5.30;99.90
19862;DHT22;10093;48.148;8.542;2022-12-18T03:41:33;-5.30;99.90
19862;DHT22;10093;48.148;8.542;2022-12-18T03:47:07;-5.30;99.90
19862;DHT22;10093;48.148;8.542;2022-12-18T03:52:18;-5.30;99.90
19862;DHT22;10093;48.148;8.542;2022-12-18T03:54:47;-5.40;99.90
19862;DHT22;10093;48.148;8.542;2022-12-18T03:57:17;-5.60;99.90
19862;DHT22;10093;48.148;8.542;2022-12-18T03:59:44;-5.60;99.90
19862;DHT22;10093;48.148;8.542;2022-12-18T04:02:21;-5.50;99.90
19862;DHT22;10093;48.148;8.542;2022-12-18T04:04:58;-5.50;99.90
19862;DHT22;10093;48.148;8.542;2022-12-18T04:07:24;-5.50;99.90
19862;DHT22;10093;48.148;8.542;2022-12-18T04:09:53;-5.40;99.90
19862;DHT22;10093;48.148;8.542;2022-12-18T04:12:23;-5.30;99.90
19862;DHT22;10093;48.148;8.542;2022-12-18T04:14:49;-5.30;99.90
19862;DHT22;10093;48.148;8.542;2022-12-18T04:17:14;-5.30;99.90
19862;DHT22;10093;48.148;8.542;2022-12-18T04:19:40;-5.30;99.90
19862;DHT22;10093;48.148;8.542;2022-12-18T04:22:05;-5.30;99.90
19862;DHT22;10093;48.148;8.542;2022-12-18T04:24:31;-5.50;99.90
19862;DHT22;10093;48.148;8.542;2022-12-18T04:26:56;-5.40;99.90
19862;DHT22;10093;48.148;8.542;2022-12-18T04:29:22;-5.30;99.90
19862;DHT22;10093;48.148;8.542;2022-12-18T04:31:48;-5.30;99.90
19862;DHT22;10093;48.148;8.542;2022-12-18T04:34:13;-5.50;99.90
19862;DHT22;10093;48.148;8.542;2022-12-18T04:36:39;-5.50;99.90
19862;DHT22;10093;48.148;8.542;2022-12-18T04:39:04;-5.30;99.90
19862;DHT22;10093;48.148;8.542;2022-12-18T04:41:30;-5.20;99.90
19862;DHT22;10093;48.148;8.542;2022-12-18T04:43:56;-5.20;99.90
19862;DHT22;10093;48.148;8.542;2022-12-18T04:46:21;-5.20;99.90
19862;DHT22;10093;48.148;8.542;2022-12-18T04:48:47;-5.20;99.90
19862;DHT22;10093;48.148;8.542;2022-12-18T04:51:12;-5.20;99.90
19862;DHT22;10093;48.148;8.542;2022-12-18T04:53:38;-5.20;99.90
19862;DHT22;10093;48.148;8.542;2022-12-18T04:56:08;-5.20;99.90
19862;DHT22;10093;48.148;8.542;2022-12-18T04:58:35;-5.30;99.90
19862;DHT22;10093;48.148;8.542;2022-12-18T05:01:01;-5.30;99.90
19862;DHT22;10093;48.148;8.542;2022-12-18T05:03:26;-5.40;99.90
19862;DHT22;10093;48.148;8.542;2022-12-18T05:05:52;-5.30;99.90
19862;DHT22;10093;48.148;8.542;2022-12-18T05:08:18;-5.30;99.90
19862;DHT22;10093;48.148;8.542;2022-12-18T05:10:43;-5.40;99.90
19862;DHT22;10093;48.148;8.542;2022-12-18T05:13:09;-5.30;99.90
19862;DHT22;10093;48.148;8.542;2022-12-18T05:15:35;-5.20;99.90
19862;DHT22;10093;48.148;8.542;2022-12-18T05:18:01;-5.20;99.90
19862;DHT22;10093;48.148;8.542;2022-12-18T05:20:28;-5.20;99.90
19862;DHT22;10093;48.148;8.542;2022-12-18T05:22:54;-5.20;99.90
19862;DHT22;10093;48.148;8.542;2022-12-18T05:25:20;-5.20;99.90
19862;DHT22;10093;48.148;8.542;2022-12-18T05:27:46;-5.20;99.90
19862;DHT22;10093;48.148;8.542;2022-12-18T05:30:12;-5.20;99.90
19862;DHT22;10093;48.148;8.542;2022-12-18T05:32:38;-5.20;99.90
19862;DHT22;10093;48.148;8.542;2022-12-18T05:35:05;-5.40;99.90
19862;DHT22;10093;48.148;8.542;2022-12-18T05:37:31;-5.20;99.90
19862;DHT22;10093;48.148;8.542;2022-12-18T05:39:57;-5.20;99.90
19862;DHT22;10093;48.148;8.542;2022-12-18T05:42:23;-5.20;99.90
19862;DHT22;10093;48.148;8.542;2022-12-18T05:44:48;-5.20;99.90
19862;DHT22;10093;48.148;8.542;2022-12-18T05:47:14;-5.10;99.90
19862;DHT22;10093;48.148;8.542;2022-12-18T05:49:40;-5.10;99.90
19862;DHT22;10093;48.148;8.542;2022-12-18T05:52:05;-5.10;99.90
19862;DHT22;10093;48.148;8.542;2022-12-18T05:54:31;-5.30;99.90
19862;DHT22;10093;48.148;8.542;2022-12-18T05:56:57;-5.30;99.90
19862;DHT22;10093;48.148;8.542;2022-12-18T05:59:23;-5.20;99.90
19862;DHT22;10093;48.148;8.542;2022-12-18T06:01:48;-5.20;99.90
19862;DHT22;10093;48.148;8.542;2022-12-18T06:04:14;-5.10;99.90
19862;DHT22;10093;48.148;8.542;2022-12-18T06:06:40;-5.00;99.90
19862;DHT22;10093;48.148;8.542;2022-12-18T06:09:05;-5.00;99.90
19862;DHT22;10093;48.148;8.542;2022-12-18T06:11:35;-5.00;99.90
19862;DHT22;10093;48.148;8.542;2022-12-18T06:14:01;-5.00;99.90
19862;DHT22;10093;48.148;8.542;2022-12-18T06:16:28;-5.00;99.90
19862;DHT22;10093;48.148;8.542;2022-12-18T06:18:56;-5.00;99.90
19862;DHT22;10093;48.148;8.542;2022-12-18T06:21:22;-5.00;99.90
19862;DHT22;10093;48.148;8.542;2022-12-18T06:23:48;-5.00;99.90
19862;DHT22;10093;48.148;8.542;2022-12-18T06:26:14;-5.00;99.90
19862;DHT22;10093;48.148;8.542;2022-12-18T06:28:40;-4.90;99.90
19862;DHT22;10093;48.148;8.542;2022-12-18T06:31:06;-4.90;99.90
19862;DHT22;10093;48.148;8.542;2022-12-18T06:33:33;-4.90;99.90
19862;DHT22;10093;48.148;8.542;2022-12-18T06:36:04;-4.90;99.90
19862;DHT22;10093;48.148;8.542;2022-12-18T06:38:32;-4.90;99.90
19862;DHT22;10093;48.148;8.542;2022-12-18T06:40:58;-4.90;99.90
19862;DHT22;10093;48.148;8.542;2022-12-18T06:43:24;-4.90;99.90
19862;DHT22;10093;48.148;8.542;2022-12-18T06:45:49;-4.90;99.90
19862;DHT22;10093;48.148;8.542;2022-12-18T06:48:21;-4.90;99.90
19862;DHT22;10093;48.148;8.542;2022-12-18T06:50:47;-4.80;99.90
19862;DHT22;10093;48.148;8.542;2022-12-18T06:53:13;-4.80;99.90
19862;DHT22;10093;48.148;8.542;2022-12-18T06:55:39;-4.80;99.90
19862;DHT22;10093;48.148;8.542;2022-12-18T06:58:04;-4.80;99.90
19862;DHT22;10093;48.148;8.542;2022-12-18T07:00:30;-4.80;99.90
19862;DHT22;10093;48.148;8.542;2022-12-18T07:02:55;-4.80;99.90
19862;DHT22;10093;48.148;8.542;2022-12-18T07:05:21;-4.70;99.90
19862;DHT22;10093;48.148;8.542;2022-12-18T07:07:47;-4.70;99.90
19862;DHT22;10093;48.148;8.542;2022-12-18T07:10:12;-4.70;99.90
19862;DHT22;10093;48.148;8.542;2022-12-18T07:12:38;-4.70;99.90
19862;DHT22;10093;48.148;8.542;2022-12-18T07:15:04;-4.70;99.90
19862;DHT22;10093;48.148;8.542;2022-12-18T07:17:29;-4.60;99.90
19862;DHT22;10093;48.148;8.542;2022-12-18T07:19:55;-4.60;99.90
19862;DHT22;10093;48.148;8.542;2022-12-18T07:22:21;-4.60;99.90
19862;DHT22;10093;48.148;8.542;2022-12-18T07:24:47;-4.60;99.90
19862;DHT22;10093;48.148;8.542;2022-12-18T07:27:12;-4.60;99.90
19862;DHT22;10093;48.148;8.542;2022-12-18T07:29:38;-4.60;99.90
19862;DHT22;10093;48.148;8.542;2022-12-18T07:32:04;-4.70;99.90
19862;DHT22;10093;48.148;8.542;2022-12-18T07:34:29;-4.70;99.90
19862;DHT22;10093;48.148;8.542;2022-12-18T07:36:55;-4.70;99.90
19862;DHT22;10093;48.148;8.542;2022-12-18T07:39:21;-4.70;99.90
19862;DHT22;10093;48.148;8.542;2022-12-18T07:41:46;-4.70;99.90
19862;DHT22;10093;48.148;8.542;2022-12-18T07:44:32;-4.70;99.90
19862;DHT22;10093;48.148;8.542;2022-12-18T07:46:57;-4.60;99.90
19862;DHT22;10093;48.148;8.542;2022-12-18T07:49:23;-4.60;99.90
19862;DHT22;10093;48.148;8.542;2022-12-18T07:51:48;-4.50;99.90
19862;DHT22;10093;48.148;8.542;2022-12-18T07:54:14;-4.50;99.90
19862;DHT22;10093;48.148;8.542;2022-12-18T07:56:40;-4.50;99.90
19862;DHT22;10093;48.148;8.542;2022-12-18T07:59:06;-4.50;99.90
19862;DHT22;10093;48.148;8.542;2022-12-18T08:01:31;-4.50;99.90
19862;DHT22;10093;48.148;8.542;2022-12-18T08:03:58;-4.40;99.90
19862;DHT22;10093;48.148;8.542;2022-12-18T08:06:24;-4.40;99.90
19862;DHT22;10093;48.148;8.542;2022-12-18T08:08:51;-4.40;99.90
19862;DHT22;10093;48.148;8.542;2022-12-18T08:11:17;-4.40;99.90
19862;DHT22;10093;48.148;8.542;2022-12-18T08:13:43;-4.50;99.90
19862;DHT22;10093;48.148;8.542;2022-12-18T08:16:08;-4.50;99.90
19862;DHT22;10093;48.148;8.542;2022-12-18T08:18:36;-4.40;99.90
19862;DHT22;10093;48.148;8.542;2022-12-18T08:21:29;-4.40;99.90
19862;DHT22;10093;48.148;8.542;2022-12-18T08:23:56;-4.40;99.90
19862;DHT22;10093;48.148;8.542;2022-12-18T08:26:24;-4.40;99.90
19862;DHT22;10093;48.148;8.542;2022-12-18T08:28:50;-4.30;99.90
19862;DHT22;10093;48.148;8.542;2022-12-18T08:31:16;-4.40;99.90
19862;DHT22;10093;48.148;8.542;2022-12-18T08:33:42;-4.40;99.90
19862;DHT22;10093;48.148;8.542;2022-12-18T08:36:09;-4.50;99.90
19862;DHT22;10093;48.148;8.542;2022-12-18T08:38:35;-4.50;99.90
19862;DHT22;10093;48.148;8.542;2022-12-18T08:41:09;-4.60;99.90
19862;DHT22;10093;48.148;8.542;2022-12-18T08:43:35;-4.50;99.90
19862;DHT22;10093;48.148;8.542;2022-12-18T08:46:20;-4.40;99.90
19862;DHT22;10093;48.148;8.542;2022-12-18T08:48:47;-4.40;99.90
19862;DHT22;10093;48.148;8.542;2022-12-18T08:51:15;-4.50;99.90
19862;DHT22;10093;48.148;8.542;2022-12-18T08:53:42;-4.70;99.90
19862;DHT22;10093;48.148;8.542;2022-12-18T08:56:07;-4.60;99.90
19862;DHT22;10093;48.148;8.542;2022-12-18T08:58:33;-4.50;99.90
19862;DHT22;10093;48.148;8.542;2022-12-18T09:01:03;-4.30;99.90
19862;DHT22;10093;48.148;8.542;2022-12-18T09:03:29;-4.20;99.90
19862;DHT22;10093;48.148;8.542;2022-12-18T09:05:54;-4.20;99.90
19862;DHT22;10093;48.148;8.542;2022-12-18T09:08:20;-4.10;99.90
19862;DHT22;10093;48.148;8.542;2022-12-18T09:10:47;-4.20;99.90
19862;DHT22;10093;48.148;8.542;2022-12-18T09:13:14;-4.10;99.90
19862;DHT22;10093;48.148;8.542;2022-12-18T09:15:46;-4.20;99.90
19862;DHT22;10093;48.148;8.542;2022-12-18T09:18:13;-4.10;99.90
19862;DHT22;10093;48.148;8.542;2022-12-18T09:20:39;-4.10;99.90
19862;DHT22;10093;48.148;8.542;2022-12-18T09:23:06;-4.00;99.90
19862;DHT22;10093;48.148;8.542;2022-12-18T09:25:32;-3.90;99.90
19862;DHT22;10093;48.148;8.542;2022-12-18T09:28:02;-4.00;99.90
19862;DHT22;10093;48.148;8.542;2022-12-18T09:30:29;-4.10;99.90
19862;DHT22;10093;48.148;8.542;2022-12-18T09:32:55;-4.10;99.90
19862;DHT22;10093;48.148;8.542;2022-12-18T09:35:20;-3.90;99.90
19862;DHT22;10093;48.148;8.542;2022-12-18T09:37:46;-3.70;99.90
19862;DHT22;10093;48.148;8.542;2022-12-18T09:40:18;-3.90;99.90
19862;DHT22;10093;48.148;8.542;2022-12-18T09:43:04;-4.00;99.90
19862;DHT22;10093;48.148;8.542;2022-12-18T09:45:41;-3.90;99.90
19862;DHT22;10093;48.148;8.542;2022-12-18T09:48:18;-3.50;99.90
19862;DHT22;10093;48.148;8.542;2022-12-18T09:50:45;-3.80;99.90
19862;DHT22;10093;48.148;8.542;2022-12-18T09:53:26;-3.80;99.90
19862;DHT22;10093;48.148;8.542;2022-12-18T09:55:53;-3.70;99.90
19862;DHT22;10093;48.148;8.542;2022-12-18T09:59:15;-3.60;99.90
19862;DHT22;10093;48.148;8.542;2022-12-18T10:01:22;-3.30;99.90
19862;DHT22;10093;48.148;8.542;2022-12-18T10:03:48;-3.30;99.90
19862;DHT22;10093;48.148;8.542;2022-12-18T10:15:03;-3.50;99.90
19862;DHT22;10093;48.148;8.542;2022-12-18T10:17:47;-3.40;99.90
19862;DHT22;10093;48.148;8.542;2022-12-18T10:20:33;-3.40;99.90
19862;DHT22;10093;48.148;8.542;2022-12-18T10:23:28;-3.40;99.90
19862;DHT22;10093;48.148;8.542;2022-12-18T10:26:10;-3.10;99.90
19862;DHT22;10093;48.148;8.542;2022-12-18T10:28:37;-3.10;99.90
19862;DHT22;10093;48.148;8.542;2022-12-18T10:31:12;-3.20;99.90
19862;DHT22;10093;48.148;8.542;2022-12-18T10:33:39;-3.30;99.90
19862;DHT22;10093;48.148;8.542;2022-12-18T10:36:06;-3.20;99.90
19862;DHT22;10093;48.148;8.542;2022-12-18T10:38:32;-3.10;99.90
19862;DHT22;10093;48.148;8.542;2022-12-18T10:43:28;-3.30;99.90
19862;DHT22;10093;48.148;8.542;2022-12-18T10:51:07;-3.10;99.90
19862;DHT22;10093;48.148;8.542;2022-12-18T10:53:35;-3.00;99.90
19862;DHT22;10093;48.148;8.542;2022-12-18T10:56:04;-2.90;99.90
19862;DHT22;10093;48.148;8.542;2022-12-18T10:58:33;-2.90;99.90
19862;DHT22;10093;48.148;8.542;2022-12-18T11:03:36;-2.60;99.90
19862;DHT22;10093;48.148;8.542;2022-12-18T11:06:08;-2.70;99.90
19862;DHT22;10093;48.148;8.542;2022-12-18T11:08:34;-2.80;99.90
19862;DHT22;10093;48.148;8.542;2022-12-18T11:11:00;-2.90;99.90
19862;DHT22;10093;48.148;8.542;2022-12-18T11:13:28;-2.80;99.90
19862;DHT22;10093;48.148;8.542;2022-12-18T11:15:54;-2.60;99.90
19862;DHT22;10093;48.148;8.542;2022-12-18T11:18:34;-2.40;99.90
19862;DHT22;10093;48.148;8.542;2022-12-18T11:21:10;-2.20;99.90
19862;DHT22;10093;48.148;8.542;2022-12-18T11:23:37;-2.30;99.90
19862;DHT22;10093;48.148;8.542;2022-12-18T11:26:10;-2.10;99.90
19862;DHT22;10093;48.148;8.542;2022-12-18T11:28:36;-2.00;99.90
19862;DHT22;10093;48.148;8.542;2022-12-18T11:31:18;-2.00;99.90
19862;DHT22;10093;48.148;8.542;2022-12-18T11:33:52;-2.10;99.90
19862;DHT22;10093;48.148;8.542;2022-12-18T11:36:19;-2.20;99.90
19862;DHT22;10093;48.148;8.542;2022-12-18T11:38:46;-2.20;99.90
19862;DHT22;10093;48.148;8.542;2022-12-18T11:41:34;-2.10;99.90
19862;DHT22;10093;48.148;8.542;2022-12-18T11:44:25;-2.20;99.90
19862;DHT22;10093;48.148;8.542;2022-12-18T11:47:00;-2.10;99.90
19862;DHT22;10093;48.148;8.542;2022-12-18T11:49:32;-2.30;99.90
19862;DHT22;10093;48.148;8.542;2022-12-18T11:52:18;-2.40;99.90
19862;DHT22;10093;48.148;8.542;2022-12-18T11:54:45;-2.90;99.90
19862;DHT22;10093;48.148;8.542;2022-12-18T11:57:14;-2.80;99.90
19862;DHT22;10093;48.148;8.542;2022-12-18T12:00:01;-2.50;99.90
19862;DHT22;10093;48.148;8.542;2022-12-18T12:14:15;-2.20;99.90
19862;DHT22;10093;48.148;8.542;2022-12-18T12:38:46;-1.90;99.90
19862;DHT22;10093;48.148;8.542;2022-12-18T12:41:18;-2.10;99.90
19862;DHT22;10093;48.148;8.542;2022-12-18T12:44:07;-1.80;99.90
19862;DHT22;10093;48.148;8.542;2022-12-18T12:46:36;-1.90;99.90
19862;DHT22;10093;48.148;8.542;2022-12-18T12:49:11;-2.00;99.90
19862;DHT22;10093;48.148;8.542;2022-12-18T12:51:41;-2.00;99.90
19862;DHT22;10093;48.148;8.542;2022-12-18T12:54:18;-2.30;99.90
19862;DHT22;10093;48.148;8.542;2022-12-18T13:00:04;-1.80;99.90
19862;DHT22;10093;48.148;8.542;2022-12-18T13:05:56;-2.00;99.90
19862;DHT22;10093;48.148;8.542;2022-12-18T13:08:25;-2.20;99.90
19862;DHT22;10093;48.148;8.542;2022-12-18T13:10:53;-2.20;99.90
19862;DHT22;10093;48.148;8.542;2022-12-18T13:13:53;-2.30;99.90
19862;DHT22;10093;48.148;8.542;2022-12-18T13:16:20;-2.40;99.90
19862;DHT22;10093;48.148;8.542;2022-12-18T13:19:18;-2.40;99.90
19862;DHT22;10093;48.148;8.542;2022-12-18T13:21:53;-2.40;99.90
19862;DHT22;10093;48.148;8.542;2022-12-18T13:24:27;-2.30;99.90
19862;DHT22;10093;48.148;8.542;2022-12-18T13:26:56;-2.10;99.90
19862;DHT22;10093;48.148;8.542;2022-12-18T13:29:48;-2.00;99.90
19862;DHT22;10093;48.148;8.542;2022-12-18T13:32:26;-2.10;99.90
19862;DHT22;10093;48.148;8.542;2022-12-18T13:37:53;-2.20;99.90
19862;DHT22;10093;48.148;8.542;2022-12-18T13:45:49;-2.30;99.90
19862;DHT22;10093;48.148;8.542;2022-12-18T13:48:25;-2.50;99.90
19862;DHT22;10093;48.148;8.542;2022-12-18T13:51:08;-2.40;99.90
19862;DHT22;10093;48.148;8.542;2022-12-18T13:56:22;-2.60;99.90
19862;DHT22;10093;48.148;8.542;2022-12-18T14:01:48;-2.80;99.90
19862;DHT22;10093;48.148;8.542;2022-12-18T14:04:27;-2.70;99.90
19862;DHT22;10093;48.148;8.542;2022-12-18T14:07:05;-2.70;99.90
19862;DHT22;10093;48.148;8.542;2022-12-18T14:09:56;-2.70;99.90
19862;DHT22;10093;48.148;8.542;2022-12-18T14:12:26;-2.70;99.90
19862;DHT22;10093;48.148;8.542;2022-12-18T14:17:52;-2.70;99.90
19862;DHT22;10093;48.148;8.542;2022-12-18T14:20:18;-2.80;99.90
19862;DHT22;10093;48.148;8.542;2022-12-18T14:22:48;-2.70;99.90
19862;DHT22;10093;48.148;8.542;2022-12-18T14:25:23;-2.80;99.90
19862;DHT22;10093;48.148;8.542;2022-12-18T14:28:01;-2.80;99.90
19862;DHT22;10093;48.148;8.542;2022-12-18T14:30:30;-2.80;99.90
19862;DHT22;10093;48.148;8.542;2022-12-18T14:35:30;-2.90;99.90
19862;DHT22;10093;48.148;8.542;2022-12-18T14:40:41;-2.90;99.90
19862;DHT22;10093;48.148;8.542;2022-12-18T14:43:10;-3.00;99.90
19862;DHT22;10093;48.148;8.542;2022-12-18T14:45:37;-3.00;99.90
19862;DHT22;10093;48.148;8.542;2022-12-18T14:48:18;-2.90;99.90
19862;DHT22;10093;48.148;8.542;2022-12-18T14:50:45;-3.00;99.90
19862;DHT22;10093;48.148;8.542;2022-12-18T14:53:22;-3.00;99.90
19862;DHT22;10093;48.148;8.542;2022-12-18T14:55:49;-3.00;99.90
19862;DHT22;10093;48.148;8.542;2022-12-18T14:58:16;-3.10;99.90
19862;DHT22;10093;48.148;8.542;2022-12-18T15:00:43;-3.10;99.90
19862;DHT22;10093;48.148;8.542;2022-12-18T15:03:09;-3.10;99.90
19862;DHT22;10093;48.148;8.542;2022-12-18T15:05:35;-3.10;99.90
19862;DHT22;10093;48.148;8.542;2022-12-18T15:08:01;-3.20;99.90
19862;DHT22;10093;48.148;8.542;2022-12-18T15:10:30;-3.20;99.90
19862;DHT22;10093;48.148;8.542;2022-12-18T15:20:52;-3.40;99.90
19862;DHT22;10093;48.148;8.542;2022-12-18T15:25:44;-3.50;99.90
19862;DHT22;10093;48.148;8.542;2022-12-18T15:28:21;-3.50;99.90
19862;DHT22;10093;48.148;8.542;2022-12-18T15:31:24;-3.50;99.90
19862;DHT22;10093;48.148;8.542;2022-12-18T15:36:21;-3.50;99.90
19862;DHT22;10093;48.148;8.542;2022-12-18T15:38:48;-3.50;99.90
19862;DHT22;10093;48.148;8.542;2022-12-18T15:41:16;-3.50;99.90
19862;DHT22;10093;48.148;8.542;2022-12-18T15:43:42;-3.50;99.90
19862;DHT22;10093;48.148;8.542;2022-12-18T15:46:13;-3.50;99.90
19862;DHT22;10093;48.148;8.542;2022-12-18T15:49:02;-3.50;99.90
19862;DHT22;10093;48.148;8.542;2022-12-18T15:51:35;-3.50;99.90
19862;DHT22;10093;48.148;8.542;2022-12-18T15:54:04;-3.60;99.90
19862;DHT22;10093;48.148;8.542;2022-12-18T15:56:31;-3.60;99.90
19862;DHT22;10093;48.148;8.542;2022-12-18T15:59:18;-3.60;99.90
19862;DHT22;10093;48.148;8.542;2022-12-18T16:01:46;-3.60;99.90
19862;DHT22;10093;48.148;8.542;2022-12-18T16:04:14;-3.60;99.90
19862;DHT22;10093;48.148;8.542;2022-12-18T16:06:41;-3.60;99.90
19862;DHT22;10093;48.148;8.542;2022-12-18T16:09:07;-3.50;99.90
19862;DHT22;10093;48.148;8.542;2022-12-18T16:11:35;-3.50;99.90
19862;DHT22;10093;48.148;8.542;2022-12-18T16:14:23;-3.50;99.90
19862;DHT22;10093;48.148;8.542;2022-12-18T16:16:53;-3.40;99.90
19862;DHT22;10093;48.148;8.542;2022-12-18T16:19:20;-3.50;99.90
19862;DHT22;10093;48.148;8.542;2022-12-18T16:21:47;-3.40;99.90
19862;DHT22;10093;48.148;8.542;2022-12-18T16:24:16;-3.40;99.90
19862;DHT22;10093;48.148;8.542;2022-12-18T16:26:42;-3.40;99.90
19862;DHT22;10093;48.148;8.542;2022-12-18T16:29:09;-3.40;99.90
19862;DHT22;10093;48.148;8.542;2022-12-18T16:31:35;-3.40;99.90
19862;DHT22;10093;48.148;8.542;2022-12-18T16:34:33;-3.40;99.90
19862;DHT22;10093;48.148;8.542;2022-12-18T16:37:05;-3.40;99.90
19862;DHT22;10093;48.148;8.542;2022-12-18T16:39:31;-3.40;99.90
19862;DHT22;10093;48.148;8.542;2022-12-18T16:41:58;-3.50;99.90
19862;DHT22;10093;48.148;8.542;2022-12-18T16:44:24;-3.40;99.90
19862;DHT22;10093;48.148;8.542;2022-12-18T16:46:49;-3.40;99.90
19862;DHT22;10093;48.148;8.542;2022-12-18T16:49:16;-3.40;99.90
19862;DHT22;10093;48.148;8.542;2022-12-18T16:51:42;-3.40;99.90
19862;DHT22;10093;48.148;8.542;2022-12-18T16:54:08;-3.40;99.90
19862;DHT22;10093;48.148;8.542;2022-12-18T16:56:34;-3.40;99.90
19862;DHT22;10093;48.148;8.542;2022-12-18T16:59:01;-3.40;99.90
19862;DHT22;10093;48.148;8.542;2022-12-18T17:01:28;-3.40;99.90
19862;DHT22;10093;48.148;8.542;2022-12-18T17:03:59;-3.50;99.90
19862;DHT22;10093;48.148;8.542;2022-12-18T17:06:26;-3.50;99.90
19862;DHT22;10093;48.148;8.542;2022-12-18T17:08:56;-3.40;99.90
19862;DHT22;10093;48.148;8.542;2022-12-18T17:11:24;-3.40;99.90
19862;DHT22;10093;48.148;8.542;2022-12-18T17:13:49;-3.40;99.90
19862;DHT22;10093;48.148;8.542;2022-12-18T17:16:15;-3.40;99.90
19862;DHT22;10093;48.148;8.542;2022-12-18T17:18:42;-3.40;99.90
19862;DHT22;10093;48.148;8.542;2022-12-18T17:21:09;-3.40;99.90
19862;DHT22;10093;48.148;8.542;2022-12-18T17:23:36;-3.40;99.90
19862;DHT22;10093;48.148;8.542;2022-12-18T17:26:02;-3.40;99.90
19862;DHT22;10093;48.148;8.542;2022-12-18T17:28:29;-3.30;99.90
19862;DHT22;10093;48.148;8.542;2022-12-18T17:30:56;-3.40;99.90
19862;DHT22;10093;48.148;8.542;2022-12-18T17:33:23;-3.30;99.90
19862;DHT22;10093;48.148;8.542;2022-12-18T17:35:49;-3.30;99.90
19862;DHT22;10093;48.148;8.542;2022-12-18T17:38:15;-3.30;99.90
19862;DHT22;10093;48.148;8.542;2022-12-18T17:40:40;-3.30;99.90
19862;DHT22;10093;48.148;8.542;2022-12-18T17:43:07;-3.30;99.90
19862;DHT22;10093;48.148;8.542;2022-12-18T17:45:37;-3.30;99.90
19862;DHT22;10093;48.148;8.542;2022-12-18T17:48:04;-3.30;99.90